DELAWARE BAY 26 NM Southeast of Cape May, NJ current weather conditions

sailwx.info

Wind from 280 at 9 knots gusting 11

Wave height 1.7 meters (5 feet), 8 second period

Air temperature 7.9° C
Water temperature 9.1° C

Last reported at 2020-Jan-19 14:50 UTC.
Time now 2020-Jan-19 16:11 UTC

Location: N 38°30' W 074°42'.
View on Google Maps.

See reports from other nearby stations

  
Tides and Currents Weather Stations Pressure Air Temp Water Temp Dewpoint Dewpoint Depression Visibility Wind Speed Wind Dir Waves Ship Positions
date/time (UTC)wind fromknots sea level pressurealtimeterstation pressurevisibilityair tempwater tempwave heightnotes
2020-Jan-19 14:50 280 9 gusting 11 7.9 9.1 1.7
2020-Jan-19 13:50 270 7 gusting 9 7.6 9.1 1.7
2020-Jan-19 12:50 280 9 gusting 11 7.7 9.2 1.8
2020-Jan-19 11:50 310 11 gusting 13 8.2 9.2 2.0
2020-Jan-19 10:50 240 13 gusting 17 8.5 9.2 2.3
2020-Jan-19 09:50 230 17 gusting 21 8.6 9.3 2.3
2020-Jan-19 08:50 220 23 gusting 27 8.7 9.4 2.3
2020-Jan-19 07:50 220 23 gusting 27 8.5 9.4 2.3
2020-Jan-19 06:50 220 19 gusting 23 8.0 9.9 2.0
2020-Jan-19 05:50 220 19 gusting 25 7.9 9.8 1.9
2020-Jan-19 04:50 220 19 gusting 23 7.5 9.8 1.9
2020-Jan-19 03:50 230 19 gusting 23 7.6 9.8 2.1
2020-Jan-19 02:50 230 23 gusting 29 8.0 9.8 2.0
2020-Jan-19 01:50 230 21 gusting 25 8.4 9.7 2.2
2020-Jan-19 00:50 200 27 gusting 33 9.5 9.8 1.7
2020-Jan-18 23:50 180 17 gusting 21 9.0 9.8 1.6
2020-Jan-18 22:50 190 15 gusting 17 8.7 9.8 1.5
2020-Jan-18 21:50 180 17 gusting 23 8.1 9.8
2020-Jan-18 20:50 170 19 gusting 23 6.5 9.8 1.3
2020-Jan-18 19:50 160 17 gusting 21 5.4 9.8 1.2
2020-Jan-18 18:50 180 15 gusting 17 4.5 9.7 1.1
2020-Jan-18 17:50 170 11 gusting 15 3.4 9.7 1.2
2020-Jan-18 16:50 190 9 gusting 13 2.7 9.6 1.2
2020-Jan-18 15:50 190 7 gusting 11 2.3 9.6 1.2
2020-Jan-18 14:50 200 9 gusting 13 1.7 9.5 1.2
2020-Jan-18 13:50 160 5 gusting 9 1.0 9.6 1.0
2020-Jan-18 12:50 120 1 gusting 3 0.2 9.6 1.2
2020-Jan-18 11:50 310 1 gusting 3 -0.2 9.6 1.1
2020-Jan-18 10:50 310 3 gusting 7 -0.2 9.5 1.3
2020-Jan-18 09:50 330 3 gusting 5 -0.6 9.5 1.3
2020-Jan-18 08:50 360 5 gusting 7 -0.8 9.5 1.3
2020-Jan-18 07:50 350 7 gusting 9 -0.8 9.5 1.4
2020-Jan-18 06:50 360 11 gusting 13 -0.6 9.5 1.3
2020-Jan-18 05:50 350 11 gusting 15 -0.2 9.5 1.4
2020-Jan-18 04:50 350 11 gusting 15 -0.1 9.5 1.4
2020-Jan-18 03:50 350 13 gusting 17 0.3 9.5 1.4
2020-Jan-18 02:50 350 11 gusting 13 0.5 9.4 1.4
2020-Jan-18 01:50 340 13 gusting 17 0.7 9.4 1.4
2020-Jan-18 00:50 330 15 gusting 21 1.1 9.3 1.4
2020-Jan-17 23:50 340 15 gusting 19 1.1 9.4 1.5
2020-Jan-17 22:50 330 17 gusting 21 1.2 9.4 1.6
2020-Jan-17 21:50 330 17 gusting 21 1.1 9.5 1.6
2020-Jan-17 20:50 330 17 gusting 21 0.8 9.6 1.9
2020-Jan-17 19:50 330 17 gusting 23 0.8 9.7 2.0
2020-Jan-17 18:50 330 19 gusting 25 0.7 9.9 2.0
2020-Jan-17 17:50 330 19 gusting 25 0.410.0 2.1
2020-Jan-17 16:50 340 21 gusting 27 0.310.0 2.1